Time;durP1;ratioP1;P1;durP2;ratioP2;P2;SDS_P1;SDS_P2;PMS_P1;PMS_P2;Temp;Humidity;BMP_temperature;BMP_pressure;BME280_temperature;BME280_humidity;BME280_pressure;Samples;Min_cycle;Max_cycle;Signal;HPM_P1;HPM_P2
2021/05/31 00:00:27;;;;;;;3.97;3.67;;;12.00;81.00;;;;;;5091556;28;20230;-38
2021/05/31 00:02:54;;;;;;;5.63;3.75;;;12.00;81.10;;;;;;5091578;28;20571;-38
2021/05/31 00:05:25;;;;;;;3.58;3.22;;;11.90;81.20;;;;;;5091430;28;20226;-38
2021/05/31 00:07:53;;;;;;;4.00;3.40;;;11.90;82.00;;;;;;5091854;28;20206;-38
2021/05/31 00:10:22;;;;;;;5.65;4.00;;;11.90;81.60;;;;;;5091498;28;20289;-38
2021/05/31 00:12:50;;;;;;;3.65;3.30;;;11.80;81.70;;;;;;5092603;28;20202;-40
2021/05/31 00:15:17;;;;;;;4.18;3.55;;;11.80;82.00;;;;;;5095608;28;20301;-38
2021/05/31 00:17:45;;;;;;;4.00;3.17;;;11.70;82.30;;;;;;5095470;28;20528;-38
2021/05/31 00:20:13;;;;;;;5.40;3.40;;;11.70;82.70;;;;;;5095539;28;20246;-38
2021/05/31 00:22:42;;;;;;;3.92;3.50;;;11.60;82.90;;;;;;5095497;28;20577;-38
2021/05/31 00:25:10;;;;;;;5.53;3.40;;;11.60;83.20;;;;;;5095621;28;20210;-39
2021/05/31 00:27:38;;;;;;;3.88;3.58;;;11.60;83.40;;;;;;5095644;28;20206;-39
2021/05/31 00:30:08;;;;;;;3.75;3.45;;;11.60;83.70;;;;;;5095101;28;20696;-38
2021/05/31 00:32:36;;;;;;;4.35;3.65;;;11.60;83.70;;;;;;5095168;28;20729;-39
2021/05/31 00:35:05;;;;;;;4.72;3.63;;;11.60;84.00;;;;;;5095485;28;20294;-39
2021/05/31 00:37:32;;;;;;;4.82;3.47;;;11.50;84.50;;;;;;5095167;28;20309;-39
2021/05/31 00:40:00;;;;;;;3.42;3.13;;;11.40;85.00;;;;;;5094957;28;20262;-38
2021/05/31 00:42:28;;;;;;;5.47;3.58;;;11.40;85.40;;;;;;5095113;28;20685;-39
2021/05/31 00:44:56;;;;;;;4.90;3.97;;;11.40;85.80;;;;;;5095018;28;20231;-39
2021/05/31 00:47:23;;;;;;;4.95;3.72;;;11.40;86.10;;;;;;5095254;28;20634;-39
2021/05/31 00:49:51;;;;;;;5.43;3.70;;;11.30;86.30;;;;;;5095207;28;20198;-39
2021/05/31 00:52:18;;;;;;;4.30;3.90;;;11.30;86.70;;;;;;5095006;28;20325;-39
2021/05/31 00:54:48;;;;;;;4.53;4.13;;;11.30;87.20;;;;;;5095087;28;20261;-40
2021/05/31 00:57:17;;;;;;;4.93;3.95;;;11.30;87.40;;;;;;5095172;28;20218;-39
2021/05/31 00:59:45;;;;;;;5.97;3.90;;;11.30;87.80;;;;;;5094584;28;20223;-39
2021/05/31 01:02:13;;;;;;;3.75;3.45;;;11.30;88.00;;;;;;5095208;28;20220;-41
2021/05/31 01:04:40;;;;;;;4.45;4.05;;;11.30;88.50;;;;;;5095024;28;20297;-39
2021/05/31 01:07:13;;;;;;;7.97;3.75;;;11.20;88.80;;;;;;5094661;28;20281;-39
2021/05/31 01:09:55;;;;;;;4.63;4.18;;;11.20;89.30;;;;;;5094944;28;20289;-39
2021/05/31 01:12:31;;;;;;;4.15;3.70;;;11.20;89.70;;;;;;5094547;28;20638;-38
2021/05/31 01:15:08;;;;;;;4.38;3.85;;;11.20;90.00;;;;;;5094507;28;20653;-38
2021/05/31 01:17:43;;;;;;;4.15;3.83;;;11.20;90.10;;;;;;5094587;28;20206;-38
2021/05/31 01:20:37;;;;;;;4.72;4.32;;;11.20;90.30;;;;;;5094366;28;20245;-39
2021/05/31 01:23:09;;;;;;;5.40;4.90;;;11.10;90.50;;;;;;5077575;28;20211;-38
2021/05/31 01:25:44;;;;;;;5.10;4.60;;;11.10;90.60;;;;;;5094456;28;20691;-37
2021/05/31 01:28:44;;;;;;;5.10;4.60;;;11.00;90.80;;;;;;5094255;28;20631;-38
2021/05/31 01:31:17;;;;;;;5.88;4.35;;;11.00;91.10;;;;;;5094493;28;20210;-39
2021/05/31 01:33:48;;;;;;;4.85;4.38;;;10.90;91.30;;;;;;5094129;28;20267;-41
2021/05/31 01:36:16;;;;;;;5.25;4.72;;;10.90;91.50;;;;;;5094398;28;20301;-38
2021/05/31 01:38:46;;;;;;;6.38;4.22;;;10.80;91.70;;;;;;5094105;28;20221;-38
2021/05/31 01:41:14;;;;;;;4.57;4.18;;;10.80;91.90;;;;;;5093752;28;20249;-40
2021/05/31 01:43:44;;;;;;;4.47;4.13;;;10.80;92.10;;;;;;5093741;28;20709;-38
2021/05/31 01:46:14;;;;;;;5.15;4.35;;;10.80;92.20;;;;;;5093997;28;20210;-37
2021/05/31 01:48:43;;;;;;;5.03;4.47;;;10.80;92.30;;;;;;5093939;28;20233;-39
2021/05/31 01:51:11;;;;;;;5.15;3.92;;;10.80;92.40;;;;;;5093976;28;20298;-38
2021/05/31 01:53:40;;;;;;;4.88;4.43;;;10.80;92.50;;;;;;5093649;28;20301;-38
2021/05/31 01:56:08;;;;;;;4.85;4.40;;;10.80;92.60;;;;;;5093784;28;20217;-38
2021/05/31 01:58:39;;;;;;;6.95;4.20;;;10.80;93.00;;;;;;5093765;28;20206;-38
2021/05/31 02:01:08;;;;;;;4.32;3.92;;;10.80;92.90;;;;;;5093757;28;20694;-38
2021/05/31 02:03:37;;;;;;;5.80;5.25;;;10.80;93.00;;;;;;5093625;28;20214;-41
2021/05/31 02:06:05;;;;;;;5.60;4.80;;;10.80;93.10;;;;;;5093544;28;20314;-38
2021/05/31 02:08:32;;;;;;;6.22;5.05;;;10.70;93.20;;;;;;5093746;28;20241;-38
2021/05/31 02:11:10;;;;;;;5.25;4.75;;;10.70;93.40;;;;;;5093361;28;20199;-38
2021/05/31 02:13:41;;;;;;;5.82;4.82;;;10.70;93.50;;;;;;5093576;28;20250;-42
2021/05/31 02:16:16;;;;;;;5.78;4.97;;;10.70;93.50;;;;;;5093680;28;20555;-38
2021/05/31 02:18:50;;;;;;;5.72;5.07;;;10.80;93.70;;;;;;5093337;28;20207;-39
2021/05/31 02:21:19;;;;;;;4.65;4.25;;;10.80;93.70;;;;;;5093312;28;20238;-37
2021/05/31 02:23:47;;;;;;;4.63;4.22;;;10.80;93.80;;;;;;5093298;28;20209;-37
2021/05/31 02:26:17;;;;;;;4.85;4.32;;;10.70;93.90;;;;;;5093222;28;20217;-38
2021/05/31 02:28:46;;;;;;;5.72;4.55;;;10.70;94.00;;;;;;5093255;28;20618;-38
2021/05/31 02:31:15;;;;;;;6.20;4.80;;;10.70;94.40;;;;;;5093085;28;20199;-38
2021/05/31 02:33:46;;;;;;;4.97;4.57;;;10.70;94.20;;;;;;5093217;28;20259;-38
2021/05/31 02:36:16;;;;;;;6.75;5.05;;;10.70;94.50;;;;;;5092707;28;20323;-38
2021/05/31 02:38:43;;;;;;;5.05;4.65;;;10.70;94.30;;;;;;5093054;28;20287;-37
2021/05/31 02:41:11;;;;;;;6.03;4.28;;;10.70;94.40;;;;;;5092756;28;20266;-39
2021/05/31 02:43:39;;;;;;;5.18;4.68;;;10.70;94.70;;;;;;5092914;28;20222;-38
2021/05/31 02:46:06;;;;;;;5.10;4.70;;;10.70;94.40;;;;;;5092909;28;20290;-39
2021/05/31 02:48:34;;;;;;;5.35;4.65;;;10.70;94.60;;;;;;5093024;28;20207;-41
2021/05/31 02:51:03;;;;;;;5.65;5.07;;;10.60;94.70;;;;;;5093041;28;20199;-38
2021/05/31 02:53:32;;;;;;;5.43;4.88;;;10.60;94.80;;;;;;5092873;28;20231;-39
2021/05/31 02:56:02;;;;;;;5.75;5.13;;;10.50;95.00;;;;;;5092778;28;20202;-43
2021/05/31 02:58:30;;;;;;;5.60;5.10;;;10.50;95.10;;;;;;5092661;28;20253;-40
2021/05/31 03:00:57;;;;;;;4.80;4.30;;;10.50;95.10;;;;;;5092574;28;20230;-39
2021/05/31 03:03:25;;;;;;;5.07;4.68;;;10.60;95.10;;;;;;5092502;28;20210;-39
2021/05/31 03:05:52;;;;;;;5.22;4.72;;;10.60;95.20;;;;;;5092594;28;20286;-39
2021/05/31 03:08:22;;;;;;;5.65;5.15;;;10.50;95.20;;;;;;5092307;28;20203;-40
2021/05/31 03:10:49;;;;;;;5.13;4.72;;;10.50;95.30;;;;;;5092316;28;20301;-39
2021/05/31 03:13:17;;;;;;;5.53;5.03;;;10.50;95.40;;;;;;5092658;28;20297;-39
2021/05/31 03:15:46;;;;;;;5.75;5.25;;;10.40;95.50;;;;;;5092476;28;20293;-39
2021/05/31 03:18:14;;;;;;;6.80;4.90;;;10.40;95.60;;;;;;5092491;28;20203;-40
2021/05/31 03:20:41;;;;;;;6.38;4.90;;;10.40;95.70;;;;;;5091994;28;20239;-42
2021/05/31 03:23:09;;;;;;;6.57;5.72;;;10.40;95.80;;;;;;5092227;28;20206;-39
2021/05/31 03:25:38;;;;;;;6.07;5.15;;;10.30;95.90;;;;;;5092199;28;20206;-39
2021/05/31 03:28:06;;;;;;;6.03;4.97;;;10.30;96.00;;;;;;5092119;28;20226;-40
2021/05/31 03:30:34;;;;;;;6.63;5.40;;;10.30;96.10;;;;;;5092092;28;20618;-39
2021/05/31 03:33:01;;;;;;;6.28;5.05;;;10.30;96.20;;;;;;5092235;28;20206;-45
2021/05/31 03:35:29;;;;;;;4.88;4.45;;;10.30;96.20;;;;;;5092097;28;20215;-40
2021/05/31 03:37:57;;;;;;;7.82;4.93;;;10.30;96.20;;;;;;5092029;28;20298;-42
2021/05/31 03:40:25;;;;;;;9.57;5.57;;;10.40;96.20;;;;;;5091952;28;20321;-39
2021/05/31 03:42:55;;;;;;;5.75;5.22;;;10.40;96.20;;;;;;5092124;28;20250;-40
2021/05/31 03:45:23;;;;;;;6.25;4.68;;;10.40;96.10;;;;;;5092218;28;20215;-39
2021/05/31 03:47:51;;;;;;;7.18;5.32;;;10.50;96.10;;;;;;5091384;28;20278;-39
2021/05/31 03:50:19;;;;;;;5.18;4.68;;;10.50;96.10;;;;;;5092235;28;20565;-40
2021/05/31 03:52:49;;;;;;;6.15;5.45;;;10.50;96.10;;;;;;5092270;28;20252;-40
2021/05/31 03:55:17;;;;;;;5.72;5.22;;;10.60;96.10;;;;;;5092048;28;20298;-40
2021/05/31 03:57:45;;;;;;;8.10;4.93;;;10.60;96.10;;;;;;5092147;28;20687;-40
2021/05/31 04:00:16;;;;;;;7.40;4.72;;;10.60;96.00;;;;;;5092014;28;20576;-38
2021/05/31 04:02:44;;;;;;;6.68;4.93;;;10.60;96.10;;;;;;5091738;28;20319;-39
2021/05/31 04:05:15;;;;;;;5.32;4.82;;;10.60;96.20;;;;;;5091398;28;20293;-39
2021/05/31 04:13:21;;;;;;;7.70;5.65;;;10.80;95.90;;;;;;5092087;28;20249;-41
2021/05/31 04:15:50;;;;;;;6.47;5.97;;;11.00;95.70;;;;;;5092018;28;20213;-40
2021/05/31 04:18:17;;;;;;;6.15;5.63;;;11.10;95.60;;;;;;5091871;28;20203;-39
2021/05/31 04:20:45;;;;;;;5.97;5.47;;;11.10;95.40;;;;;;5091309;28;20245;-39
2021/05/31 04:23:13;;;;;;;5.85;5.35;;;11.20;95.40;;;;;;5091477;28;20261;-43
2021/05/31 04:25:40;;;;;;;5.35;4.85;;;11.30;95.30;;;;;;5091575;28;20217;-39
2021/05/31 04:28:07;;;;;;;6.90;5.63;;;11.50;95.20;;;;;;5091522;28;20434;-39
2021/05/31 04:30:35;;;;;;;7.68;6.07;;;11.50;95.30;;;;;;5091667;28;20302;-40
2021/05/31 04:33:04;;;;;;;6.65;5.70;;;11.60;94.90;;;;;;5091825;28;20206;-40
2021/05/31 04:35:32;;;;;;;5.97;5.38;;;11.70;94.80;;;;;;5091543;28;20289;-40
2021/05/31 04:37:59;;;;;;;5.55;5.05;;;11.80;94.70;;;;;;5091299;28;20242;-40
2021/05/31 04:40:27;;;;;;;5.70;5.20;;;11.90;94.60;;;;;;5090909;28;20209;-40
2021/05/31 04:42:55;;;;;;;6.93;5.80;;;12.00;94.50;;;;;;5091523;28;20217;-40
2021/05/31 04:45:22;;;;;;;6.40;5.75;;;12.10;94.30;;;;;;5091757;28;20237;-41
2021/05/31 04:47:50;;;;;;;6.68;6.00;;;12.20;94.20;;;;;;5091281;28;20297;-40
2021/05/31 04:50:19;;;;;;;5.80;5.18;;;12.30;94.10;;;;;;5091558;28;20294;-41
2021/05/31 04:52:46;;;;;;;7.20;6.50;;;12.40;94.00;;;;;;5091466;28;20297;-40
2021/05/31 04:55:17;;;;;;;6.35;5.75;;;12.40;93.80;;;;;;5091320;28;20207;-40
2021/05/31 04:57:46;;;;;;;7.30;5.85;;;12.50;93.80;;;;;;5091698;28;20302;-40
2021/05/31 05:00:16;;;;;;;10.18;5.95;;;12.50;93.90;;;;;;5094890;28;20210;-41
2021/05/31 05:02:43;;;;;;;6.78;5.72;;;12.60;93.50;;;;;;5095089;28;20207;-41
2021/05/31 05:05:12;;;;;;;6.70;6.03;;;12.60;93.40;;;;;;5095193;28;20672;-40
2021/05/31 05:07:45;;;;;;;6.20;5.70;;;12.70;93.30;;;;;;5094958;28;20298;-41
2021/05/31 05:10:17;;;;;;;6.65;5.75;;;12.70;93.20;;;;;;5095268;28;20210;-41
2021/05/31 05:12:44;;;;;;;6.68;6.07;;;12.80;93.20;;;;;;5095214;28;20202;-40
2021/05/31 05:15:13;;;;;;;6.32;5.47;;;12.90;93.10;;;;;;5094772;28;20756;-40
2021/05/31 05:17:40;;;;;;;7.63;5.85;;;12.90;93.00;;;;;;5094813;28;20297;-40
2021/05/31 05:20:10;;;;;;;7.72;5.50;;;13.00;92.90;;;;;;5094512;28;20235;-40
2021/05/31 05:22:37;;;;;;;7.72;5.82;;;13.10;92.70;;;;;;5094658;28;20226;-40
2021/05/31 05:25:08;;;;;;;6.85;6.15;;;13.20;92.60;;;;;;5094798;28;20214;-40
2021/05/31 05:27:36;;;;;;;7.32;5.97;;;13.30;92.40;;;;;;5095220;28;20673;-41
2021/05/31 05:30:05;;;;;;;6.82;6.07;;;13.30;92.30;;;;;;5094701;28;20264;-40
2021/05/31 05:32:34;;;;;;;5.90;5.32;;;13.40;92.20;;;;;;5094608;28;20298;-41
2021/05/31 05:35:09;;;;;;;6.13;5.57;;;13.40;92.10;;;;;;5094888;28;20577;-43
2021/05/31 05:37:42;;;;;;;7.10;5.95;;;13.50;92.00;;;;;;5094485;28;20646;-40
2021/05/31 05:43:08;;;;;;;7.88;6.28;;;13.60;91.70;;;;;;5094293;28;20219;-39
2021/05/31 05:46:00;;;;;;;6.10;5.50;;;13.60;91.60;;;;;;5094443;28;20246;-40
2021/05/31 05:48:29;;;;;;;6.30;5.60;;;13.70;91.50;;;;;;5094328;28;20294;-41
2021/05/31 05:51:05;;;;;;;7.05;6.35;;;13.80;91.40;;;;;;5094507;28;20295;-40
2021/05/31 05:53:33;;;;;;;6.88;5.78;;;13.80;91.40;;;;;;5094319;28;20537;-41
2021/05/31 05:56:02;;;;;;;6.68;5.97;;;13.80;91.40;;;;;;5094659;28;20689;-40
2021/05/31 05:58:30;;;;;;;6.70;6.05;;;13.90;91.40;;;;;;5094044;28;20202;-40
2021/05/31 06:00:58;;;;;;;6.82;6.15;;;13.90;91.60;;;;;;5094061;28;20234;-40
2021/05/31 06:03:26;;;;;;;7.05;6.32;;;13.90;91.30;;;;;;5094313;28;20661;-40
2021/05/31 06:05:55;;;;;;;6.35;5.85;;;14.00;91.30;;;;;;5094228;28;20230;-40
2021/05/31 06:08:23;;;;;;;6.45;5.85;;;14.10;91.20;;;;;;5093915;28;20217;-39
2021/05/31 06:10:51;;;;;;;7.93;6.30;;;14.10;91.20;;;;;;5093311;28;20207;-39
2021/05/31 06:13:20;;;;;;;6.13;5.63;;;14.20;91.50;;;;;;5093813;28;20249;-40
2021/05/31 06:15:47;;;;;;;9.20;6.95;;;14.20;91.10;;;;;;5093955;28;20211;-39
2021/05/31 06:18:15;;;;;;;9.25;6.28;;;14.20;91.10;;;;;;5093657;28;20217;-40
2021/05/31 06:20:42;;;;;;;7.00;6.35;;;14.30;91.10;;;;;;5093265;28;20329;-40
2021/05/31 06:23:11;;;;;;;7.47;6.78;;;14.20;91.20;;;;;;5093699;28;20278;-40
2021/05/31 06:25:39;;;;;;;6.60;6.03;;;14.20;91.30;;;;;;5093684;28;20313;-42
2021/05/31 06:28:07;;;;;;;6.40;5.80;;;14.30;91.30;;;;;;5093105;28;20241;-40
2021/05/31 06:30:36;;;;;;;9.32;7.38;;;14.40;91.20;;;;;;5093111;28;20206;-40
2021/05/31 06:33:05;;;;;;;8.98;6.72;;;14.50;91.20;;;;;;5093457;28;20234;-40
2021/05/31 06:35:33;;;;;;;6.53;5.90;;;14.50;91.10;;;;;;5093266;28;20280;-41
2021/05/31 06:38:02;;;;;;;7.70;6.30;;;14.60;91.10;;;;;;5093159;28;20637;-40
2021/05/31 06:40:31;;;;;;;9.05;8.25;;;14.80;91.00;;;;;;5093080;28;20256;-42
2021/05/31 06:42:59;;;;;;;8.18;7.05;;;14.90;90.80;;;;;;5092728;28;20697;-40
2021/05/31 06:45:29;;;;;;;11.02;7.57;;;14.80;90.80;;;;;;5092810;28;20609;-43
2021/05/31 06:47:59;;;;;;;7.28;6.07;;;14.80;90.90;;;;;;5093300;28;20276;-41
2021/05/31 06:50:28;;;;;;;7.38;6.65;;;14.80;90.90;;;;;;5092960;28;20236;-40
2021/05/31 06:52:56;;;;;;;10.00;5.95;;;15.00;90.80;;;;;;5092686;28;20209;-41
2021/05/31 06:55:25;;;;;;;6.80;6.03;;;15.10;90.60;;;;;;5092648;28;20285;-40
2021/05/31 06:57:53;;;;;;;6.25;5.65;;;15.20;90.20;;;;;;5092639;28;20249;-39
2021/05/31 07:00:23;;;;;;;25.38;6.95;;;15.40;89.90;;;;;;5092673;28;20256;-40
2021/05/31 07:02:51;;;;;;;7.20;5.43;;;15.50;89.30;;;;;;5092540;28;20222;-39
2021/05/31 07:05:21;;;;;;;6.13;5.57;;;15.60;88.40;;;;;;5092470;28;20243;-38
2021/05/31 07:07:50;;;;;;;8.25;5.85;;;15.60;88.00;;;;;;5092535;28;20207;-40
2021/05/31 07:10:22;;;;;;;5.53;5.03;;;15.60;87.70;;;;;;5092592;28;20298;-38
2021/05/31 07:12:50;;;;;;;6.15;5.55;;;15.80;86.80;;;;;;5092458;28;20740;-38
2021/05/31 07:15:19;;;;;;;6.93;5.40;;;15.80;86.30;;;;;;5092736;28;20291;-38
2021/05/31 07:17:48;;;;;;;6.25;5.68;;;15.90;85.90;;;;;;5092591;28;20202;-39
2021/05/31 07:20:19;;;;;;;8.77;5.75;;;16.00;85.10;;;;;;5092373;28;20243;-41
2021/05/31 07:22:49;;;;;;;5.72;5.22;;;15.90;84.70;;;;;;5092260;28;20222;-39
2021/05/31 07:25:18;;;;;;;6.05;5.40;;;15.90;84.50;;;;;;5092401;28;20218;-41
2021/05/31 07:27:47;;;;;;;5.93;5.32;;;16.00;84.40;;;;;;5092442;28;20622;-43
2021/05/31 07:30:17;;;;;;;5.72;4.85;;;16.10;84.00;;;;;;5092275;28;20217;-40
2021/05/31 07:32:45;;;;;;;5.28;4.75;;;16.20;82.80;;;;;;5092299;28;20210;-40
2021/05/31 07:35:13;;;;;;;5.43;4.78;;;16.20;81.70;;;;;;5092213;28;20207;-39
2021/05/31 07:37:41;;;;;;;5.45;4.60;;;16.20;81.30;;;;;;5092138;28;20215;-40
2021/05/31 07:40:13;;;;;;;5.07;4.63;;;16.30;80.80;;;;;;5092181;28;20206;-41
2021/05/31 07:42:41;;;;;;;5.10;4.70;;;16.30;80.60;;;;;;5092167;28;20234;-40
2021/05/31 07:45:11;;;;;;;7.43;4.75;;;16.30;80.30;;;;;;5092148;28;20289;-39
2021/05/31 07:47:38;;;;;;;7.50;4.45;;;16.30;80.40;;;;;;5091777;28;20572;-39
2021/05/31 07:50:08;;;;;;;6.28;4.38;;;16.30;79.90;;;;;;5091891;28;20658;-39
2021/05/31 07:52:36;;;;;;;5.10;4.60;;;16.40;79.80;;;;;;5092044;28;20711;-40
2021/05/31 07:55:07;;;;;;;4.55;4.15;;;16.50;79.70;;;;;;5091361;28;20210;-40
2021/05/31 07:57:36;;;;;;;5.60;4.05;;;16.60;79.20;;;;;;5091700;28;20624;-41
2021/05/31 08:00:06;;;;;;;5.38;4.10;;;16.70;78.30;;;;;;5091371;28;20203;-40
2021/05/31 08:02:33;;;;;;;8.95;5.03;;;16.80;77.80;;;;;;5091382;28;20305;-40
2021/05/31 08:05:01;;;;;;;4.25;3.95;;;17.00;77.60;;;;;;5091787;28;20680;-42
2021/05/31 08:07:28;;;;;;;4.90;3.30;;;17.00;76.90;;;;;;5091882;28;20259;-41
2021/05/31 08:09:56;;;;;;;4.82;3.60;;;17.00;76.30;;;;;;5092001;28;20290;-40
2021/05/31 08:12:23;;;;;;;3.28;2.97;;;17.10;75.90;;;;;;5092028;28;20222;-40
2021/05/31 08:14:52;;;;;;;3.10;2.83;;;17.20;75.00;;;;;;5091778;28;20206;-42
2021/05/31 08:17:20;;;;;;;3.88;2.78;;;17.30;74.70;;;;;;5091557;28;20301;-42
2021/05/31 08:19:47;;;;;;;3.63;3.25;;;17.40;73.10;;;;;;5091512;28;20329;-41
2021/05/31 08:22:15;;;;;;;4.30;3.65;;;17.40;72.10;;;;;;5091693;28;20712;-40
2021/05/31 08:24:42;;;;;;;4.95;3.10;;;17.50;71.20;;;;;;5091752;28;20210;-41
2021/05/31 08:27:10;;;;;;;5.95;3.05;;;17.60;70.60;;;;;;5092075;28;20210;-41
2021/05/31 08:29:37;;;;;;;2.88;2.67;;;17.70;69.70;;;;;;5091742;28;20301;-41
2021/05/31 08:32:07;;;;;;;3.45;3.15;;;17.70;69.00;;;;;;5091538;28;20683;-40
2021/05/31 08:34:35;;;;;;;4.40;2.80;;;17.80;68.60;;;;;;5094014;28;20210;-40
2021/05/31 08:37:03;;;;;;;3.38;3.08;;;17.90;68.10;;;;;;5095917;28;20217;-41
2021/05/31 08:39:31;;;;;;;4.72;3.22;;;17.90;67.80;;;;;;5095384;28;20293;-41
2021/05/31 08:41:58;;;;;;;4.53;3.80;;;17.80;67.60;;;;;;5095250;28;20222;-41
2021/05/31 08:44:26;;;;;;;3.20;2.90;;;17.70;67.80;;;;;;5095380;28;20610;-40
2021/05/31 08:46:54;;;;;;;7.18;4.00;;;17.60;68.00;;;;;;5095098;28;20210;-41
2021/05/31 08:49:24;;;;;;;4.60;4.00;;;17.60;68.00;;;;;;5095505;28;20230;-41
2021/05/31 08:51:52;;;;;;;5.05;3.28;;;17.60;66.60;;;;;;5095395;28;20234;-40
2021/05/31 08:54:19;;;;;;;4.03;2.60;;;17.70;66.30;;;;;;5095214;28;20577;-41
2021/05/31 08:56:47;;;;;;;8.27;3.22;;;17.80;65.80;;;;;;5095261;28;20211;-41
2021/05/31 08:59:14;;;;;;;3.25;2.70;;;17.90;64.90;;;;;;5095028;28;20250;-41
2021/05/31 09:01:42;;;;;;;2.78;2.58;;;18.00;64.70;;;;;;5095117;28;20210;-39
2021/05/31 09:04:14;;;;;;;3.38;3.08;;;18.10;63.80;;;;;;5095208;28;20238;-41
2021/05/31 09:06:54;;;;;;;3.20;3.00;;;18.20;63.60;;;;;;5094947;28;20688;-43
2021/05/31 09:09:21;;;;;;;6.57;3.00;;;18.30;64.30;;;;;;5094998;28;20214;-40
2021/05/31 09:11:55;;;;;;;4.80;2.88;;;18.40;63.30;;;;;;5095272;28;20225;-41
2021/05/31 09:14:23;;;;;;;2.67;2.42;;;18.40;61.90;;;;;;5094931;28;20215;-40
2021/05/31 09:16:50;;;;;;;2.60;2.22;;;18.40;61.90;;;;;;5094709;28;20633;-41
2021/05/31 09:19:18;;;;;;;5.13;2.65;;;18.30;61.30;;;;;;5094527;28;20253;-40
2021/05/31 09:21:47;;;;;;;2.65;2.45;;;18.40;61.50;;;;;;5095071;28;20298;-41
2021/05/31 09:24:19;;;;;;;2.42;2.22;;;18.40;60.20;;;;;;5094857;28;20306;-44
2021/05/31 09:26:48;;;;;;;5.95;2.30;;;18.50;59.60;;;;;;5094756;28;20207;-43
2021/05/31 09:29:16;;;;;;;9.00;2.85;;;18.40;59.50;;;;;;5094542;28;20744;-44
2021/05/31 09:31:44;;;;;;;2.78;2.05;;;18.50;59.00;;;;;;5094382;28;20242;-41
2021/05/31 09:34:13;;;;;;;3.00;2.35;;;18.50;58.50;;;;;;5094223;28;20268;-40
2021/05/31 09:36:52;;;;;;;4.10;2.60;;;18.60;57.30;;;;;;5094260;28;20673;-42
2021/05/31 09:39:28;;;;;;;3.10;2.80;;;18.60;57.20;;;;;;5094394;28;20577;-40
2021/05/31 09:42:02;;;;;;;4.38;3.78;;;18.60;57.40;;;;;;5094380;28;20243;-41
2021/05/31 09:44:30;;;;;;;4.22;2.75;;;18.70;57.80;;;;;;5094276;28;20211;-41
2021/05/31 09:46:57;;;;;;;3.42;2.40;;;18.60;57.70;;;;;;5093281;28;20706;-41
2021/05/31 09:49:26;;;;;;;3.97;2.70;;;18.70;57.70;;;;;;5094271;28;20211;-40
2021/05/31 09:52:00;;;;;;;3.35;2.53;;;18.70;57.50;;;;;;5093942;28;20729;-40
2021/05/31 09:54:33;;;;;;;2.20;2.00;;;18.60;57.10;;;;;;5093879;28;20214;-41
2021/05/31 09:57:13;;;;;;;3.35;2.17;;;18.60;57.10;;;;;;5093731;28;20692;-43
2021/05/31 09:59:43;;;;;;;3.00;2.80;;;18.60;57.00;;;;;;5093628;28;20669;-47
2021/05/31 10:02:14;;;;;;;3.92;2.65;;;18.50;57.00;;;;;;5093875;28;20300;-43
2021/05/31 10:04:48;;;;;;;4.28;3.38;;;18.50;57.00;;;;;;5093728;28;20305;-43
2021/05/31 10:07:24;;;;;;;2.80;2.60;;;18.60;57.00;;;;;;5093607;28;20210;-43
2021/05/31 10:09:51;;;;;;;2.67;2.45;;;18.60;57.10;;;;;;5093781;28;20274;-44
2021/05/31 10:12:19;;;;;;;3.33;3.00;;;18.60;57.30;;;;;;5093952;28;20379;-43
2021/05/31 10:14:46;;;;;;;3.25;2.95;;;18.60;57.50;;;;;;5093707;28;20624;-45
2021/05/31 10:17:14;;;;;;;4.20;3.80;;;18.60;57.70;;;;;;5093564;28;20238;-45
2021/05/31 10:19:42;;;;;;;3.10;2.90;;;18.60;58.00;;;;;;5093496;28;20243;-44
2021/05/31 10:22:11;;;;;;;3.10;2.78;;;18.60;58.50;;;;;;5093166;28;20801;-42
2021/05/31 10:24:41;;;;;;;3.28;2.95;;;18.60;58.60;;;;;;5093236;28;20206;-44
2021/05/31 10:27:11;;;;;;;2.50;2.30;;;18.70;59.20;;;;;;5093423;28;20603;-46
2021/05/31 10:29:41;;;;;;;4.63;2.95;;;18.90;58.50;;;;;;5093484;28;20305;-45
2021/05/31 10:32:10;;;;;;;3.30;3.10;;;19.10;58.50;;;;;;5093355;28;20312;-42
2021/05/31 10:34:46;;;;;;;5.72;3.20;;;19.20;58.60;;;;;;5093362;28;20206;-43
2021/05/31 10:37:23;;;;;;;4.35;3.00;;;19.20;58.50;;;;;;5093397;28;20218;-43
2021/05/31 10:40:04;;;;;;;2.67;2.47;;;19.30;57.90;;;;;;5092985;28;20263;-43
2021/05/31 10:42:39;;;;;;;3.72;3.35;;;19.30;57.60;;;;;;5092973;28;20626;-43
2021/05/31 10:45:26;;;;;;;2.72;2.53;;;19.30;57.80;;;;;;5092813;28;20214;-42
2021/05/31 10:48:12;;;;;;;2.60;2.40;;;19.30;57.90;;;;;;5093195;28;20234;-43
2021/05/31 10:50:42;;;;;;;3.65;3.10;;;19.30;57.90;;;;;;5093107;28;20225;-40
2021/05/31 10:53:25;;;;;;;3.60;3.33;;;19.30;58.10;;;;;;5092755;28;20216;-41
2021/05/31 10:55:56;;;;;;;3.58;3.28;;;19.20;58.10;;;;;;5092935;28;20210;-39
2021/05/31 10:58:25;;;;;;;3.15;2.85;;;19.10;58.10;;;;;;5092392;28;20207;-40
2021/05/31 11:00:56;;;;;;;4.18;3.60;;;19.10;58.10;;;;;;5092497;28;20211;-39
2021/05/31 11:03:24;;;;;;;3.22;2.90;;;19.30;57.90;;;;;;5092544;28;20317;-40
2021/05/31 11:05:52;;;;;;;4.45;2.72;;;19.40;57.50;;;;;;5092492;28;20260;-40
2021/05/31 11:08:27;;;;;;;4.88;3.53;;;19.40;57.50;;;;;;5092330;28;20297;-40
2021/05/31 11:11:00;;;;;;;2.83;2.63;;;19.40;57.70;;;;;;5092408;28;20366;-39
2021/05/31 11:13:28;;;;;;;5.00;3.22;;;19.50;57.50;;;;;;5092450;28;20198;-42
2021/05/31 11:16:05;;;;;;;2.97;2.72;;;19.50;57.50;;;;;;5092386;28;20202;-41
2021/05/31 11:18:40;;;;;;;4.47;3.08;;;19.50;57.40;;;;;;5092152;28;20705;-41
2021/05/31 11:21:09;;;;;;;3.20;2.90;;;19.60;57.70;;;;;;5092004;28;20261;-41
2021/05/31 11:23:39;;;;;;;5.03;4.13;;;19.60;57.70;;;;;;5092153;28;20234;-41
2021/05/31 11:26:12;;;;;;;5.15;3.50;;;19.70;57.80;;;;;;5092297;28;20238;-44
2021/05/31 11:28:40;;;;;;;2.78;2.58;;;19.80;57.80;;;;;;5091803;28;20211;-42
2021/05/31 11:31:07;;;;;;;10.93;2.97;;;19.80;57.50;;;;;;5092087;28;20361;-41
2021/05/31 11:33:36;;;;;;;2.60;2.40;;;19.80;57.30;;;;;;5092132;28;20738;-41
2021/05/31 11:36:03;;;;;;;3.88;3.10;;;19.80;57.30;;;;;;5091988;28;20203;-41
2021/05/31 11:38:31;;;;;;;3.20;2.90;;;19.90;57.40;;;;;;5091911;28;20330;-40
2021/05/31 11:40:58;;;;;;;2.85;2.63;;;19.90;57.20;;;;;;5091948;28;20210;-42
2021/05/31 11:43:27;;;;;;;5.63;3.05;;;20.00;56.50;;;;;;5091589;28;20222;-41
2021/05/31 11:45:55;;;;;;;5.05;2.90;;;20.00;56.40;;;;;;5092070;28;20298;-41
2021/05/31 11:48:22;;;;;;;14.02;4.05;;;20.00;56.70;;;;;;5091952;28;20289;-40
2021/05/31 11:50:53;;;;;;;4.45;3.13;;;20.00;56.70;;;;;;5091609;28;20210;-41
2021/05/31 11:53:21;;;;;;;4.13;3.45;;;20.00;56.50;;;;;;5091808;28;20297;-41
2021/05/31 11:55:48;;;;;;;4.32;2.85;;;20.00;56.40;;;;;;5091490;28;20240;-40
2021/05/31 11:58:17;;;;;;;4.97;3.30;;;20.10;56.60;;;;;;5091505;28;20241;-40
2021/05/31 12:00:46;;;;;;;3.65;3.30;;;20.20;56.40;;;;;;5091530;28;20768;-40
2021/05/31 12:03:17;;;;;;;3.63;2.53;;;20.20;55.80;;;;;;5091579;28;20309;-41
2021/05/31 12:05:45;;;;;;;3.88;2.65;;;20.30;55.60;;;;;;5091460;28;20249;-41
2021/05/31 12:08:14;;;;;;;4.85;2.65;;;20.30;55.10;;;;;;5091874;28;20647;-40
2021/05/31 12:10:43;;;;;;;2.88;2.45;;;20.30;55.20;;;;;;5095892;28;20234;-41
2021/05/31 12:13:12;;;;;;;3.60;3.30;;;20.40;54.90;;;;;;5095915;28;20619;-41
2021/05/31 12:15:40;;;;;;;3.13;2.72;;;20.40;54.80;;;;;;5096217;28;20206;-41
2021/05/31 12:18:11;;;;;;;3.20;2.90;;;20.40;54.70;;;;;;5095988;28;20301;-43
2021/05/31 12:20:39;;;;;;;6.35;3.08;;;20.40;55.00;;;;;;5095743;28;20241;-43
2021/05/31 12:23:16;;;;;;;12.10;3.83;;;20.30;55.20;;;;;;5095670;28;20217;-42
2021/05/31 12:25:43;;;;;;;3.42;3.17;;;20.50;55.30;;;;;;5096166;28;20297;-41
2021/05/31 12:28:11;;;;;;;4.07;3.03;;;20.50;55.20;;;;;;5095960;28;20310;-41
2021/05/31 12:30:39;;;;;;;6.35;3.08;;;20.50;55.50;;;;;;5096033;28;20211;-42
2021/05/31 12:33:12;;;;;;;3.75;3.35;;;20.40;55.60;;;;;;5095637;28;20301;-42
2021/05/31 12:35:43;;;;;;;3.17;2.90;;;20.40;55.70;;;;;;5095628;28;20661;-41
2021/05/31 12:38:10;;;;;;;3.03;2.83;;;20.40;55.60;;;;;;5095681;28;20644;-42
2021/05/31 12:40:40;;;;;;;5.15;2.95;;;20.40;55.50;;;;;;5095636;28;20302;-43
2021/05/31 12:43:08;;;;;;;3.40;3.00;;;20.30;55.50;;;;;;5095486;28;20720;-43
2021/05/31 12:45:42;;;;;;;3.55;3.25;;;20.30;55.50;;;;;;5095557;28;20302;-44
2021/05/31 12:48:19;;;;;;;4.53;3.05;;;20.40;55.30;;;;;;5095573;28;20328;-41
2021/05/31 12:50:50;;;;;;;5.15;4.00;;;20.50;55.30;;;;;;5095689;28;20242;-42
2021/05/31 12:53:17;;;;;;;4.68;3.22;;;20.50;55.10;;;;;;5095226;28;20224;-42
2021/05/31 12:55:45;;;;;;;3.53;3.20;;;20.60;54.80;;;;;;5095377;28;20217;-41
2021/05/31 12:58:15;;;;;;;3.33;3.13;;;20.60;54.50;;;;;;5095537;28;20211;-40
2021/05/31 13:00:44;;;;;;;3.20;2.85;;;20.60;54.00;;;;;;5095375;28;20306;-42
2021/05/31 13:03:14;;;;;;;2.67;2.47;;;20.80;53.60;;;;;;5097693;28;20297;-43
2021/05/31 13:05:47;;;;;;;3.67;3.03;;;20.80;53.10;;;;;;5094951;28;20293;-41